sensor_id;sensor_type;location;lat;lon;timestamp;pressure;altitude;pressure_sealevel;temperature;humidity
40918;BME280;26644;50.248;19.032;2023-07-16T00:02:09;97882.69;;;22.91;62.40
40918;BME280;26644;50.248;19.032;2023-07-16T00:05:16;97892.69;;;22.93;62.60
40918;BME280;26644;50.248;19.032;2023-07-16T00:08:21;97898.91;;;22.82;62.77
40918;BME280;26644;50.248;19.032;2023-07-16T00:11:26;97889.22;;;22.76;62.97
40918;BME280;26644;50.248;19.032;2023-07-16T00:14:31;97880.28;;;22.67;63.05
40918;BME280;26644;50.248;19.032;2023-07-16T00:17:36;97880.66;;;22.65;63.18
40918;BME280;26644;50.248;19.032;2023-07-16T00:20:43;97878.16;;;22.60;63.04
40918;BME280;26644;50.248;19.032;2023-07-16T00:23:47;97877.38;;;22.60;63.22
40918;BME280;26644;50.248;19.032;2023-07-16T00:26:53;97862.00;;;22.50;63.12
40918;BME280;26644;50.248;19.032;2023-07-16T00:29:57;97878.16;;;22.60;63.09
40918;BME280;26644;50.248;19.032;2023-07-16T00:33:02;97883.38;;;22.62;62.85
40918;BME280;26644;50.248;19.032;2023-07-16T00:36:09;97874.59;;;22.63;62.68
40918;BME280;26644;50.248;19.032;2023-07-16T00:39:16;97871.38;;;22.61;62.68
40918;BME280;26644;50.248;19.032;2023-07-16T00:42:22;97873.88;;;22.66;62.71
40918;BME280;26644;50.248;19.032;2023-07-16T00:45:27;97869.47;;;22.65;62.47
40918;BME280;26644;50.248;19.032;2023-07-16T00:48:33;97870.25;;;22.66;62.60
40918;BME280;26644;50.248;19.032;2023-07-16T00:51:42;97864.25;;;22.64;62.60
40918;BME280;26644;50.248;19.032;2023-07-16T00:54:47;97876.22;;;22.64;62.59
40918;BME280;26644;50.248;19.032;2023-07-16T00:57:53;97867.03;;;22.64;62.27
40918;BME280;26644;50.248;19.032;2023-07-16T01:00:59;97876.53;;;22.59;62.54
40918;BME280;26644;50.248;19.032;2023-07-16T01:04:04;97855.59;;;22.49;62.54
40918;BME280;26644;50.248;19.032;2023-07-16T01:07:14;97867.34;;;22.58;62.34
40918;BME280;26644;50.248;19.032;2023-07-16T01:10:22;97860.88;;;22.54;62.46
40918;BME280;26644;50.248;19.032;2023-07-16T01:13:28;97864.06;;;22.53;62.61
40918;BME280;26644;50.248;19.032;2023-07-16T01:16:35;97854.44;;;22.50;62.71
40918;BME280;26644;50.248;19.032;2023-07-16T01:19:39;97846.38;;;22.49;62.49
40918;BME280;26644;50.248;19.032;2023-07-16T01:23:10;97840.78;;;22.49;62.54
40918;BME280;26644;50.248;19.032;2023-07-16T01:26:45;97852.50;;;22.54;62.85
40918;BME280;26644;50.248;19.032;2023-07-16T01:30:11;97839.03;;;22.40;63.18
40918;BME280;26644;50.248;19.032;2023-07-16T01:33:20;97839.97;;;22.48;63.19
40918;BME280;26644;50.248;19.032;2023-07-16T01:36:27;97847.06;;;22.42;63.44
40918;BME280;26644;50.248;19.032;2023-07-16T01:39:32;97835.75;;;22.35;63.76
40918;BME280;26644;50.248;19.032;2023-07-16T01:42:40;97845.13;;;22.23;64.31
40918;BME280;26644;50.248;19.032;2023-07-16T01:45:47;97854.69;;;22.22;64.46
40918;BME280;26644;50.248;19.032;2023-07-16T01:48:52;97855.31;;;22.12;64.84
40918;BME280;26644;50.248;19.032;2023-07-16T01:51:57;97857.16;;;22.04;65.17
40918;BME280;26644;50.248;19.032;2023-07-16T01:55:02;97847.75;;;21.92;65.31
40918;BME280;26644;50.248;19.032;2023-07-16T01:58:06;97849.38;;;21.94;64.84
40918;BME280;26644;50.248;19.032;2023-07-16T02:01:14;97847.72;;;21.89;65.31
40918;BME280;26644;50.248;19.032;2023-07-16T02:04:18;97843.50;;;21.79;66.02
40918;BME280;26644;50.248;19.032;2023-07-16T02:07:23;97839.34;;;21.73;66.42
40918;BME280;26644;50.248;19.032;2023-07-16T02:10:27;97842.47;;;21.68;66.66
40918;BME280;26644;50.248;19.032;2023-07-16T02:13:32;97835.84;;;21.56;66.96
40918;BME280;26644;50.248;19.032;2023-07-16T02:16:39;97840.56;;;21.52;67.53
40918;BME280;26644;50.248;19.032;2023-07-16T02:19:44;97833.50;;;21.39;67.72
40918;BME280;26644;50.248;19.032;2023-07-16T02:22:49;97842.94;;;21.34;68.05
40918;BME280;26644;50.248;19.032;2023-07-16T02:25:54;97835.97;;;21.24;68.47
40918;BME280;26644;50.248;19.032;2023-07-16T02:28:58;97831.03;;;21.18;68.35
40918;BME280;26644;50.248;19.032;2023-07-16T02:32:06;97844.53;;;21.16;68.78
40918;BME280;26644;50.248;19.032;2023-07-16T02:35:12;97829.63;;;21.08;68.93
40918;BME280;26644;50.248;19.032;2023-07-16T02:38:17;97835.19;;;21.08;69.21
40918;BME280;26644;50.248;19.032;2023-07-16T02:41:22;97842.25;;;21.02;69.43
40918;BME280;26644;50.248;19.032;2023-07-16T02:44:27;97841.72;;;20.96;69.75
40918;BME280;26644;50.248;19.032;2023-07-16T02:47:34;97841.50;;;20.89;69.87
40918;BME280;26644;50.248;19.032;2023-07-16T02:50:39;97830.56;;;20.80;69.55
40918;BME280;26644;50.248;19.032;2023-07-16T02:53:43;97841.00;;;20.83;69.81
40918;BME280;26644;50.248;19.032;2023-07-16T02:56:48;97837.22;;;20.75;70.26
40918;BME280;26644;50.248;19.032;2023-07-16T02:59:52;97836.34;;;20.71;70.33
40918;BME280;26644;50.248;19.032;2023-07-16T03:03:00;97841.13;;;20.71;70.28
40918;BME280;26644;50.248;19.032;2023-07-16T03:06:04;97843.53;;;20.72;69.00
40918;BME280;26644;50.248;19.032;2023-07-16T03:09:10;97845.59;;;20.75;69.31
40918;BME280;26644;50.248;19.032;2023-07-16T03:12:14;97845.22;;;20.77;69.47
40918;BME280;26644;50.248;19.032;2023-07-16T03:15:19;97845.22;;;20.77;69.98
40918;BME280;26644;50.248;19.032;2023-07-16T03:18:28;97846.06;;;20.78;69.60
40918;BME280;26644;50.248;19.032;2023-07-16T03:21:34;97854.06;;;20.95;69.88
40918;BME280;26644;50.248;19.032;2023-07-16T03:24:38;97856.56;;;21.00;69.13
40918;BME280;26644;50.248;19.032;2023-07-16T03:27:43;97854.31;;;21.06;69.17
40918;BME280;26644;50.248;19.032;2023-07-16T03:30:49;97853.66;;;21.13;68.62
40918;BME280;26644;50.248;19.032;2023-07-16T03:33:58;97861.47;;;21.23;68.47
40918;BME280;26644;50.248;19.032;2023-07-16T03:37:05;97846.06;;;21.13;68.65
40918;BME280;26644;50.248;19.032;2023-07-16T03:40:14;97856.69;;;21.23;68.13
40918;BME280;26644;50.248;19.032;2023-07-16T03:43:21;97854.16;;;21.18;67.83
40918;BME280;26644;50.248;19.032;2023-07-16T03:46:31;97871.97;;;21.30;68.17
40918;BME280;26644;50.248;19.032;2023-07-16T03:49:37;97864.78;;;21.29;67.90
40918;BME280;26644;50.248;19.032;2023-07-16T03:52:43;97880.44;;;21.33;68.22
40918;BME280;26644;50.248;19.032;2023-07-16T03:55:48;97879.78;;;21.40;68.06
40918;BME280;26644;50.248;19.032;2023-07-16T03:58:54;97881.84;;;21.43;68.16
40918;BME280;26644;50.248;19.032;2023-07-16T04:02:00;97886.91;;;21.57;68.03
40918;BME280;26644;50.248;19.032;2023-07-16T04:05:09;97898.72;;;21.86;66.18
40918;BME280;26644;50.248;19.032;2023-07-16T04:08:14;97890.31;;;22.25;64.68
40918;BME280;26644;50.248;19.032;2023-07-16T04:11:19;97889.66;;;22.78;62.65
40918;BME280;26644;50.248;19.032;2023-07-16T04:14:23;97903.69;;;23.32;60.84
40918;BME280;26644;50.248;19.032;2023-07-16T04:17:28;97912.50;;;23.91;59.05
40918;BME280;26644;50.248;19.032;2023-07-16T04:20:35;97922.78;;;24.48;57.40
40918;BME280;26644;50.248;19.032;2023-07-16T04:23:40;97920.09;;;25.03;55.86
40918;BME280;26644;50.248;19.032;2023-07-16T04:26:44;97917.97;;;25.42;54.08
40918;BME280;26644;50.248;19.032;2023-07-16T04:29:49;97924.63;;;25.85;53.10
40918;BME280;26644;50.248;19.032;2023-07-16T04:32:53;97926.78;;;26.10;52.04
40918;BME280;26644;50.248;19.032;2023-07-16T04:36:01;97933.28;;;26.29;52.50
40918;BME280;26644;50.248;19.032;2023-07-16T04:39:05;97926.91;;;26.61;51.49
40918;BME280;26644;50.248;19.032;2023-07-16T04:42:10;97930.22;;;27.02;51.10
40918;BME280;26644;50.248;19.032;2023-07-16T04:45:14;97936.59;;;27.50;49.67
40918;BME280;26644;50.248;19.032;2023-07-16T04:48:19;97936.13;;;27.91;48.54
40918;BME280;26644;50.248;19.032;2023-07-16T04:51:26;97934.38;;;28.22;47.69
40918;BME280;26644;50.248;19.032;2023-07-16T04:54:35;97944.69;;;28.58;46.37
40918;BME280;26644;50.248;19.032;2023-07-16T04:57:40;97947.78;;;28.82;45.66
40918;BME280;26644;50.248;19.032;2023-07-16T05:00:45;97942.03;;;28.96;45.07
40918;BME280;26644;50.248;19.032;2023-07-16T05:03:50;97952.00;;;29.12;44.86
40918;BME280;26644;50.248;19.032;2023-07-16T05:06:57;97952.28;;;29.25;44.35
40918;BME280;26644;50.248;19.032;2023-07-16T05:10:02;97958.78;;;29.25;44.23
40918;BME280;26644;50.248;19.032;2023-07-16T05:13:07;97968.72;;;29.41;44.34
40918;BME280;26644;50.248;19.032;2023-07-16T05:16:11;97959.28;;;29.54;44.30
40918;BME280;26644;50.248;19.032;2023-07-16T05:19:16;97960.75;;;29.74;43.38
40918;BME280;26644;50.248;19.032;2023-07-16T05:22:23;97959.97;;;29.69;43.43
40918;BME280;26644;50.248;19.032;2023-07-16T05:25:28;97965.28;;;29.64;43.03
40918;BME280;26644;50.248;19.032;2023-07-16T05:28:32;97963.41;;;29.46;43.35
40918;BME280;26644;50.248;19.032;2023-07-16T05:31:38;97964.06;;;29.65;43.62
40918;BME280;26644;50.248;19.032;2023-07-16T05:34:43;97971.75;;;30.02;42.81
40918;BME280;26644;50.248;19.032;2023-07-16T05:37:50;97981.13;;;30.30;42.31
40918;BME280;26644;50.248;19.032;2023-07-16T05:41:00;97979.28;;;30.78;41.57
40918;BME280;26644;50.248;19.032;2023-07-16T05:44:07;97980.56;;;31.01;40.26
40918;BME280;26644;50.248;19.032;2023-07-16T05:47:11;97986.06;;;31.12;40.52
40918;BME280;26644;50.248;19.032;2023-07-16T05:50:16;97992.59;;;31.36;40.15
40918;BME280;26644;50.248;19.032;2023-07-16T05:53:23;97991.97;;;31.48;39.86
40918;BME280;26644;50.248;19.032;2023-07-16T05:56:28;98008.59;;;31.94;39.95
40918;BME280;26644;50.248;19.032;2023-07-16T05:59:32;98009.50;;;32.51;38.86
40918;BME280;26644;50.248;19.032;2023-07-16T06:02:38;98023.84;;;33.00;37.93
40918;BME280;26644;50.248;19.032;2023-07-16T06:05:43;98024.63;;;33.54;37.59
40918;BME280;26644;50.248;19.032;2023-07-16T06:08:50;98021.44;;;34.27;36.26
40918;BME280;26644;50.248;19.032;2023-07-16T06:11:55;98041.38;;;34.99;35.37
40918;BME280;26644;50.248;19.032;2023-07-16T06:15:00;98050.13;;;35.56;34.01
40918;BME280;26644;50.248;19.032;2023-07-16T06:18:04;98062.19;;;36.21;33.01
40918;BME280;26644;50.248;19.032;2023-07-16T06:21:09;98071.00;;;36.71;32.16
40918;BME280;26644;50.248;19.032;2023-07-16T06:24:16;98077.91;;;37.37;31.11
40918;BME280;26644;50.248;19.032;2023-07-16T06:27:21;98095.41;;;37.79;30.22
40918;BME280;26644;50.248;19.032;2023-07-16T06:30:25;98086.19;;;38.12;29.00
40918;BME280;26644;50.248;19.032;2023-07-16T06:33:30;98101.03;;;38.39;28.86
40918;BME280;26644;50.248;19.032;2023-07-16T06:36:34;98109.13;;;38.59;28.16
40918;BME280;26644;50.248;19.032;2023-07-16T06:39:42;98121.44;;;38.59;28.13
40918;BME280;26644;50.248;19.032;2023-07-16T06:42:46;98126.84;;;38.57;27.69
40918;BME280;26644;50.248;19.032;2023-07-16T06:45:51;98121.72;;;38.34;27.90
40918;BME280;26644;50.248;19.032;2023-07-16T06:48:55;98134.16;;;38.30;28.28
40918;BME280;26644;50.248;19.032;2023-07-16T06:52:00;98130.19;;;38.28;28.23
40918;BME280;26644;50.248;19.032;2023-07-16T06:55:08;98134.50;;;38.51;28.72
40918;BME280;26644;50.248;19.032;2023-07-16T06:58:14;98125.06;;;38.23;28.16
40918;BME280;26644;50.248;19.032;2023-07-16T07:01:18;98130.19;;;38.46;28.42
40918;BME280;26644;50.248;19.032;2023-07-16T07:04:23;98131.78;;;38.57;27.96
40918;BME280;26644;50.248;19.032;2023-07-16T07:07:27;98139.13;;;38.49;27.99
40918;BME280;26644;50.248;19.032;2023-07-16T07:10:35;98154.88;;;38.90;27.52
40918;BME280;26644;50.248;19.032;2023-07-16T07:13:40;98150.56;;;39.14;27.34
40918;BME280;26644;50.248;19.032;2023-07-16T07:16:46;98152.78;;;39.19;27.27
40918;BME280;26644;50.248;19.032;2023-07-16T07:19:50;98145.59;;;39.05;27.57
40918;BME280;26644;50.248;19.032;2023-07-16T07:22:55;98155.34;;;38.89;27.87
40918;BME280;26644;50.248;19.032;2023-07-16T07:26:05;98141.63;;;39.02;27.78
40918;BME280;26644;50.248;19.032;2023-07-16T07:29:10;98143.53;;;38.96;28.15
40918;BME280;26644;50.248;19.032;2023-07-16T07:32:15;98152.59;;;39.22;27.77
40918;BME280;26644;50.248;19.032;2023-07-16T07:35:20;98154.75;;;39.46;28.10
40918;BME280;26644;50.248;19.032;2023-07-16T07:38:24;98138.34;;;39.80;27.66
40918;BME280;26644;50.248;19.032;2023-07-16T07:41:32;98138.53;;;39.76;27.09
40918;BME280;26644;50.248;19.032;2023-07-16T07:44:37;98141.25;;;39.37;27.84
40918;BME280;26644;50.248;19.032;2023-07-16T07:47:42;98158.22;;;39.59;27.88
40918;BME280;26644;50.248;19.032;2023-07-16T07:50:46;98155.69;;;39.61;28.28
40918;BME280;26644;50.248;19.032;2023-07-16T07:53:51;98163.84;;;39.87;27.84
40918;BME280;26644;50.248;19.032;2023-07-16T07:57:00;98165.97;;;39.77;27.71
40918;BME280;26644;50.248;19.032;2023-07-16T08:00:08;98159.78;;;39.70;28.05
40918;BME280;26644;50.248;19.032;2023-07-16T08:03:16;98151.22;;;39.51;28.14
40918;BME280;26644;50.248;19.032;2023-07-16T08:06:21;98161.25;;;39.56;27.81
40918;BME280;26644;50.248;19.032;2023-07-16T08:09:26;98159.03;;;39.60;28.24
40918;BME280;26644;50.248;19.032;2023-07-16T08:12:34;98154.69;;;39.65;28.15
40918;BME280;26644;50.248;19.032;2023-07-16T08:15:38;98154.44;;;39.87;28.03
40918;BME280;26644;50.248;19.032;2023-07-16T08:18:43;98158.75;;;40.16;27.21
40918;BME280;26644;50.248;19.032;2023-07-16T08:21:47;98167.38;;;39.82;27.90
40918;BME280;26644;50.248;19.032;2023-07-16T08:24:52;98148.84;;;39.50;28.13
40918;BME280;26644;50.248;19.032;2023-07-16T08:28:02;98154.25;;;39.57;28.22
40918;BME280;26644;50.248;19.032;2023-07-16T08:31:09;98150.44;;;39.60;28.66
40918;BME280;26644;50.248;19.032;2023-07-16T08:34:14;98155.53;;;39.56;28.54
40918;BME280;26644;50.248;19.032;2023-07-16T08:37:18;98145.41;;;39.70;28.48
40918;BME280;26644;50.248;19.032;2023-07-16T08:40:23;98155.19;;;39.63;29.20
40918;BME280;26644;50.248;19.032;2023-07-16T08:43:33;98150.13;;;39.82;28.74
40918;BME280;26644;50.248;19.032;2023-07-16T08:46:38;98158.31;;;40.08;28.58
40918;BME280;26644;50.248;19.032;2023-07-16T08:49:53;98154.31;;;39.81;28.71
40918;BME280;26644;50.248;19.032;2023-07-16T08:53:00;98152.97;;;39.58;29.26
40918;BME280;26644;50.248;19.032;2023-07-16T08:56:06;98139.84;;;39.66;29.58
40918;BME280;26644;50.248;19.032;2023-07-16T08:59:14;98139.34;;;39.68;29.07
40918;BME280;26644;50.248;19.032;2023-07-16T09:02:20;98132.13;;;39.82;29.49
40918;BME280;26644;50.248;19.032;2023-07-16T09:05:25;98136.78;;;40.27;29.03
40918;BME280;26644;50.248;19.032;2023-07-16T09:08:30;98130.06;;;40.31;28.65
40918;BME280;26644;50.248;19.032;2023-07-16T09:11:34;98139.66;;;40.27;28.67
40918;BME280;26644;50.248;19.032;2023-07-16T09:14:43;98137.59;;;40.04;28.78
40918;BME280;26644;50.248;19.032;2023-07-16T09:17:48;98130.34;;;39.84;29.25
40918;BME280;26644;50.248;19.032;2023-07-16T09:20:57;98128.41;;;39.90;29.68
40918;BME280;26644;50.248;19.032;2023-07-16T09:24:07;98131.31;;;39.81;29.49
40918;BME280;26644;50.248;19.032;2023-07-16T09:27:13;98130.50;;;39.81;29.74
40918;BME280;26644;50.248;19.032;2023-07-16T09:30:20;98129.25;;;39.82;29.90
40918;BME280;26644;50.248;19.032;2023-07-16T09:33:26;98129.91;;;39.76;29.76
40918;BME280;26644;50.248;19.032;2023-07-16T09:36:31;98138.50;;;40.10;29.55
40918;BME280;26644;50.248;19.032;2023-07-16T09:39:37;98134.91;;;40.39;28.89
40918;BME280;26644;50.248;19.032;2023-07-16T09:42:42;98132.13;;;40.54;28.56
40918;BME280;26644;50.248;19.032;2023-07-16T09:45:50;98126.97;;;40.58;28.47
40918;BME280;26644;50.248;19.032;2023-07-16T09:48:54;98139.06;;;40.48;28.75
40918;BME280;26644;50.248;19.032;2023-07-16T09:52:01;98133.03;;;40.36;28.74
40918;BME280;26644;50.248;19.032;2023-07-16T09:55:09;98139.91;;;40.15;29.13
40918;BME280;26644;50.248;19.032;2023-07-16T09:58:17;98136.28;;;40.05;29.04
40918;BME280;26644;50.248;19.032;2023-07-16T10:01:28;98131.84;;;39.70;29.37
40918;BME280;26644;50.248;19.032;2023-07-16T10:04:38;98145.13;;;39.06;30.19
40918;BME280;26644;50.248;19.032;2023-07-16T10:07:51;98136.53;;;38.60;30.62
40918;BME280;26644;50.248;19.032;2023-07-16T10:10:57;98142.28;;;38.23;31.43
40918;BME280;26644;50.248;19.032;2023-07-16T10:14:01;98131.63;;;37.73;31.85
40918;BME280;26644;50.248;19.032;2023-07-16T10:17:12;98134.44;;;37.55;32.27
40918;BME280;26644;50.248;19.032;2023-07-16T10:20:29;98143.50;;;37.53;31.81
40918;BME280;26644;50.248;19.032;2023-07-16T10:23:39;98142.94;;;37.14;32.31
40918;BME280;26644;50.248;19.032;2023-07-16T10:26:44;98141.44;;;37.00;32.48
40918;BME280;26644;50.248;19.032;2023-07-16T10:29:50;98139.16;;;37.17;31.95
40918;BME280;26644;50.248;19.032;2023-07-16T10:32:58;98142.16;;;37.13;32.04
40918;BME280;26644;50.248;19.032;2023-07-16T10:36:08;98143.03;;;36.79;32.38
40918;BME280;26644;50.248;19.032;2023-07-16T10:39:12;98138.75;;;36.26;33.17
40918;BME280;26644;50.248;19.032;2023-07-16T10:42:17;98139.53;;;35.92;33.74
40918;BME280;26644;50.248;19.032;2023-07-16T10:45:23;98136.69;;;35.92;34.87
40918;BME280;26644;50.248;19.032;2023-07-16T10:48:30;98131.31;;;36.29;34.18
40918;BME280;26644;50.248;19.032;2023-07-16T10:51:34;98142.41;;;36.62;33.01
40918;BME280;26644;50.248;19.032;2023-07-16T10:54:40;98144.84;;;36.86;32.65
40918;BME280;26644;50.248;19.032;2023-07-16T10:57:46;98139.38;;;37.01;31.78
40918;BME280;26644;50.248;19.032;2023-07-16T11:00:52;98134.56;;;36.75;32.10
40918;BME280;26644;50.248;19.032;2023-07-16T11:04:06;98132.31;;;36.70;32.38
40918;BME280;26644;50.248;19.032;2023-07-16T11:07:13;98129.78;;;36.50;32.38
40918;BME280;26644;50.248;19.032;2023-07-16T11:10:18;98125.44;;;36.10;32.86
40918;BME280;26644;50.248;19.032;2023-07-16T11:13:27;98115.09;;;35.65;33.42
40918;BME280;26644;50.248;19.032;2023-07-16T11:16:33;98126.38;;;35.30;34.17
40918;BME280;26644;50.248;19.032;2023-07-16T11:19:45;98125.97;;;34.89;34.52
40918;BME280;26644;50.248;19.032;2023-07-16T11:22:50;98119.16;;;34.57;34.94
40918;BME280;26644;50.248;19.032;2023-07-16T11:25:56;98123.50;;;34.16;35.37
40918;BME280;26644;50.248;19.032;2023-07-16T11:29:00;98115.94;;;33.93;36.05
40918;BME280;26644;50.248;19.032;2023-07-16T11:32:06;98114.06;;;33.86;36.48
40918;BME280;26644;50.248;19.032;2023-07-16T11:35:16;98113.19;;;33.73;36.37
40918;BME280;26644;50.248;19.032;2023-07-16T11:38:22;98109.97;;;33.54;36.99
40918;BME280;26644;50.248;19.032;2023-07-16T11:41:26;98116.34;;;33.42;36.83
40918;BME280;26644;50.248;19.032;2023-07-16T11:44:33;98120.50;;;33.21;37.53
40918;BME280;26644;50.248;19.032;2023-07-16T11:47:38;98109.13;;;33.21;37.50
40918;BME280;26644;50.248;19.032;2023-07-16T11:50:46;98116.13;;;33.16;37.49
40918;BME280;26644;50.248;19.032;2023-07-16T11:53:50;98104.66;;;33.20;38.14
40918;BME280;26644;50.248;19.032;2023-07-16T11:56:55;98102.16;;;33.22;37.48
40918;BME280;26644;50.248;19.032;2023-07-16T11:59:59;98100.59;;;33.21;37.43
40918;BME280;26644;50.248;19.032;2023-07-16T12:03:06;98090.19;;;33.14;37.42
40918;BME280;26644;50.248;19.032;2023-07-16T12:06:19;98093.16;;;33.07;37.40
40918;BME280;26644;50.248;19.032;2023-07-16T12:09:25;98095.88;;;32.94;37.63
40918;BME280;26644;50.248;19.032;2023-07-16T12:12:31;98090.19;;;32.74;37.65
40918;BME280;26644;50.248;19.032;2023-07-16T12:15:39;98099.59;;;32.71;37.60
40918;BME280;26644;50.248;19.032;2023-07-16T12:18:43;98101.06;;;32.59;37.77
40918;BME280;26644;50.248;19.032;2023-07-16T12:21:51;98095.81;;;32.57;38.24
40918;BME280;26644;50.248;19.032;2023-07-16T12:33:12;98084.25;;;32.48;38.46
40918;BME280;26644;50.248;19.032;2023-07-16T12:36:17;98079.13;;;32.59;38.39
40918;BME280;26644;50.248;19.032;2023-07-16T12:39:24;98080.09;;;32.73;37.93
40918;BME280;26644;50.248;19.032;2023-07-16T12:42:29;98078.03;;;32.73;37.40
40918;BME280;26644;50.248;19.032;2023-07-16T12:45:33;98071.25;;;32.67;37.19
40918;BME280;26644;50.248;19.032;2023-07-16T12:48:38;98069.66;;;32.66;37.19
40918;BME280;26644;50.248;19.032;2023-07-16T12:51:42;98069.94;;;32.72;37.31
40918;BME280;26644;50.248;19.032;2023-07-16T12:54:50;98062.81;;;32.83;37.51
40918;BME280;26644;50.248;19.032;2023-07-16T12:57:54;98076.44;;;32.92;37.45
40918;BME280;26644;50.248;19.032;2023-07-16T13:00:59;98064.00;;;33.02;37.52
40918;BME280;26644;50.248;19.032;2023-07-16T13:04:03;98065.38;;;33.14;37.29
40918;BME280;26644;50.248;19.032;2023-07-16T13:07:09;98063.88;;;33.26;37.50
40918;BME280;26644;50.248;19.032;2023-07-16T13:10:16;98071.88;;;33.31;37.01
40918;BME280;26644;50.248;19.032;2023-07-16T13:13:21;98066.19;;;33.31;36.49
40918;BME280;26644;50.248;19.032;2023-07-16T13:16:25;98058.34;;;33.19;36.82
40918;BME280;26644;50.248;19.032;2023-07-16T13:19:31;98063.31;;;33.15;36.74
40918;BME280;26644;50.248;19.032;2023-07-16T13:22:35;98065.56;;;33.07;37.08
40918;BME280;26644;50.248;19.032;2023-07-16T13:25:43;98059.94;;;33.04;37.32
40918;BME280;26644;50.248;19.032;2023-07-16T13:28:47;98056.19;;;33.07;37.55
40918;BME280;26644;50.248;19.032;2023-07-16T13:31:52;98055.66;;;32.95;37.23
40918;BME280;26644;50.248;19.032;2023-07-16T13:34:56;98059.75;;;32.94;37.48
40918;BME280;26644;50.248;19.032;2023-07-16T13:38:01;98057.00;;;32.87;37.56
40918;BME280;26644;50.248;19.032;2023-07-16T13:41:08;98033.56;;;32.46;38.10
40918;BME280;26644;50.248;19.032;2023-07-16T13:44:13;98068.50;;;32.63;38.26
40918;BME280;26644;50.248;19.032;2023-07-16T13:47:17;98058.16;;;32.53;38.07
40918;BME280;26644;50.248;19.032;2023-07-16T13:50:22;98073.66;;;32.48;39.24
40918;BME280;26644;50.248;19.032;2023-07-16T13:53:27;98072.94;;;32.44;39.06
40918;BME280;26644;50.248;19.032;2023-07-16T13:56:34;98062.09;;;32.39;39.46
40918;BME280;26644;50.248;19.032;2023-07-16T13:59:38;98065.78;;;32.36;39.22
40918;BME280;26644;50.248;19.032;2023-07-16T14:02:44;98082.88;;;32.32;39.53
40918;BME280;26644;50.248;19.032;2023-07-16T14:05:48;98083.31;;;32.31;39.79
40918;BME280;26644;50.248;19.032;2023-07-16T14:08:53;98081.19;;;32.39;39.76
40918;BME280;26644;50.248;19.032;2023-07-16T14:12:00;98065.78;;;32.36;39.36
40918;BME280;26644;50.248;19.032;2023-07-16T14:15:05;98081.91;;;32.43;39.53
40918;BME280;26644;50.248;19.032;2023-07-16T14:18:10;98076.22;;;32.43;39.28
40918;BME280;26644;50.248;19.032;2023-07-16T14:21:15;98082.69;;;32.43;39.35
40918;BME280;26644;50.248;19.032;2023-07-16T14:24:19;98074.91;;;32.47;39.66
40918;BME280;26644;50.248;19.032;2023-07-16T14:27:27;98072.38;;;32.53;39.38
40918;BME280;26644;50.248;19.032;2023-07-16T14:30:32;98061.00;;;32.53;39.65
40918;BME280;26644;50.248;19.032;2023-07-16T14:33:37;98067.34;;;32.61;40.05
40918;BME280;26644;50.248;19.032;2023-07-16T14:36:41;98073.81;;;32.61;39.62
40918;BME280;26644;50.248;19.032;2023-07-16T14:39:46;98062.97;;;32.56;39.83
40918;BME280;26644;50.248;19.032;2023-07-16T14:42:53;98074.25;;;32.60;39.31
40918;BME280;26644;50.248;19.032;2023-07-16T14:45:59;98063.69;;;32.60;39.52
40918;BME280;26644;50.248;19.032;2023-07-16T14:49:04;98062.44;;;32.61;39.55
40918;BME280;26644;50.248;19.032;2023-07-16T14:52:09;98056.25;;;32.66;39.52
40918;BME280;26644;50.248;19.032;2023-07-16T14:55:13;98055.88;;;32.64;39.18
40918;BME280;26644;50.248;19.032;2023-07-16T14:58:21;98051.53;;;32.60;39.65
40918;BME280;26644;50.248;19.032;2023-07-16T15:01:26;98052.81;;;32.55;39.21
40918;BME280;26644;50.248;19.032;2023-07-16T15:04:31;98053.56;;;32.59;38.84
40918;BME280;26644;50.248;19.032;2023-07-16T15:07:36;98047.44;;;32.61;38.80
40918;BME280;26644;50.248;19.032;2023-07-16T15:10:41;98040.88;;;32.64;39.26
40918;BME280;26644;50.248;19.032;2023-07-16T15:13:49;98036.28;;;32.70;39.28
40918;BME280;26644;50.248;19.032;2023-07-16T15:16:54;98030.25;;;32.68;39.28
40918;BME280;26644;50.248;19.032;2023-07-16T15:19:58;98039.56;;;32.68;38.97
40918;BME280;26644;50.248;19.032;2023-07-16T15:23:03;98042.84;;;32.67;39.26
40918;BME280;26644;50.248;19.032;2023-07-16T15:26:07;98059.88;;;32.67;39.65
40918;BME280;26644;50.248;19.032;2023-07-16T15:29:16;98061.22;;;32.62;39.45
40918;BME280;26644;50.248;19.032;2023-07-16T15:32:20;98049.91;;;32.59;39.69
40918;BME280;26644;50.248;19.032;2023-07-16T15:35:25;98050.38;;;32.57;39.99
40918;BME280;26644;50.248;19.032;2023-07-16T15:38:30;98036.94;;;32.58;40.41
40918;BME280;26644;50.248;19.032;2023-07-16T15:41:35;98026.91;;;32.53;39.93
40918;BME280;26644;50.248;19.032;2023-07-16T15:44:42;98024.41;;;32.55;39.81
40918;BME280;26644;50.248;19.032;2023-07-16T15:47:47;98032.34;;;32.64;39.87
40918;BME280;26644;50.248;19.032;2023-07-16T15:50:57;98040.81;;;32.67;39.16
40918;BME280;26644;50.248;19.032;2023-07-16T15:54:03;98041.22;;;32.66;39.28
40918;BME280;26644;50.248;19.032;2023-07-16T15:57:07;98059.53;;;32.65;39.34
40918;BME280;26644;50.248;19.032;2023-07-16T16:00:16;98045.41;;;32.61;39.26
40918;BME280;26644;50.248;19.032;2023-07-16T16:03:21;98045.03;;;32.59;39.20
40918;BME280;26644;50.248;19.032;2023-07-16T16:06:26;98055.22;;;32.57;39.73
40918;BME280;26644;50.248;19.032;2023-07-16T16:09:30;98052.03;;;32.55;39.84
40918;BME280;26644;50.248;19.032;2023-07-16T16:12:35;98068.44;;;32.47;39.46
40918;BME280;26644;50.248;19.032;2023-07-16T16:15:42;98074.16;;;32.43;39.32
40918;BME280;26644;50.248;19.032;2023-07-16T16:18:47;98069.38;;;32.40;39.84
40918;BME280;26644;50.248;19.032;2023-07-16T16:21:52;98061.09;;;32.26;39.93